EDDM/MUC METAR and TAF weather

Enter ICAO airport designator
Station Type Date Time Source
EDDM METAR 2019/06/17 12:20 UTC NOAA

EDDM 171220Z 09011KT 9999 SCT042 23/14 Q1019 NOSIG


Station Type Date Time Source
EDDM Decoded METAR 2019/06/17 12:20 UTC NOAA

Munchen, Germany (EDDM) 48-21N 011-47E
Jun 17, 2019 - 08:20 AM EDT / 2019.06.17 1220 UTC
Wind: from the E (090 degrees) at 13 MPH (11 KT):0
Visibility: greater than 7 mile(s):0
Sky conditions: partly cloudy
Temperature: 73 F (23 C)
Dew Point: 57 F (14 C)
Relative Humidity: 56%
Pressure (altimeter): 30.09 in. Hg (1019 hPa)
ob: EDDM 171220Z 09011KT 9999 SCT042 23/14 Q1019 NOSIG
cycle: 12

Station Type Date Time Source
EDDM TAF 2019/06/17 12:27 UTC NOAA

TAF EDDM 171100Z 1712/1818 08010KT 9999 FEW035
BECMG 1717/1719 VRB03KT
BECMG 1807/1809 07005KT
BECMG 1815/1817 VRB03KT

Example: see airport list